Monte Do Carmo, Brazil
Current Conditions -  °F | °C
As of 3:00 PM on Thursday 23 Oct 2014 (Local Time) from SBPJ Reporting Station
Thunderstorm Thunderstorm  
Wind Chill: 86°   Ceiling: Unl
Heat Index: 89°   Visibility: 6mi
Dew Point: 68°   Wind: 2mph
Humidity: 55%   Direction: 30°NNE
Pressure: 29.85"   Gusts: NA
Location:  10.75°S, 48.12°W
Report Text: SBPJ 231800Z 03002KT 9999 TS SCT025 FEW030CB 30/20 Q1011
Loading
Personal Weather Stations






























Interactive Weather Map
Tropical Storm Tracking
New forecast layout! Learn more

10-Day Weather Forecast

Advertisements
Track Severe Weather on mobile